Ridge, Texas
Current Conditions -  °F | °C
As of 10:15 AM on Thursday 23 Oct 2014 (Local Time) from KLHB Reporting Station
Clear Clear  
Wind Chill: 19°   Ceiling: Unl
Heat Index: 19°   Visibility: 7mi
Dew Point: 12°   Wind: 3mph
Humidity: 62%   Direction: 130°SE
Pressure: 30.17"   Gusts: NA
Location:  31.0654°N, 96.4194°W
Report Text: KLHB 231515Z AUTO 13003KT 7SM CLR 19/12 A3017 RMK AO2 T01940119
Loading
Personal Weather Stations






























Interactive Weather Map
Tropical Storm Tracking
New forecast layout! Learn more

10-Day Weather Forecast

Advertisements
Track Severe Weather on mobile